sensor_id;sensor_type;location;lat;lon;timestamp;P1;durP1;ratioP1;P2;durP2;ratioP2
39924;SDS011;25592;49.986;11.618;2023-12-22T00:00:22;139.20;;;59.97;;
39924;SDS011;25592;49.986;11.618;2023-12-22T00:03:07;140.90;;;58.33;;
39924;SDS011;25592;49.986;11.618;2023-12-22T00:05:53;140.57;;;56.30;;
39924;SDS011;25592;49.986;11.618;2023-12-22T00:08:38;141.43;;;57.43;;
39924;SDS011;25592;49.986;11.618;2023-12-22T00:11:24;142.53;;;59.03;;
39924;SDS011;25592;49.986;11.618;2023-12-22T00:14:09;142.10;;;57.60;;
39924;SDS011;25592;49.986;11.618;2023-12-22T00:16:55;140.40;;;56.53;;
39924;SDS011;25592;49.986;11.618;2023-12-22T00:19:40;140.67;;;58.17;;
39924;SDS011;25592;49.986;11.618;2023-12-22T00:22:26;142.13;;;57.40;;
39924;SDS011;25592;49.986;11.618;2023-12-22T00:25:11;141.80;;;56.53;;
39924;SDS011;25592;49.986;11.618;2023-12-22T00:27:57;143.33;;;57.53;;
39924;SDS011;25592;49.986;11.618;2023-12-22T00:30:42;146.90;;;57.27;;
39924;SDS011;25592;49.986;11.618;2023-12-22T00:33:28;142.97;;;58.33;;
39924;SDS011;25592;49.986;11.618;2023-12-22T00:36:14;140.80;;;57.30;;
39924;SDS011;25592;49.986;11.618;2023-12-22T00:38:59;141.63;;;57.30;;
39924;SDS011;25592;49.986;11.618;2023-12-22T00:41:45;139.63;;;56.73;;
39924;SDS011;25592;49.986;11.618;2023-12-22T00:44:30;140.20;;;57.10;;
39924;SDS011;25592;49.986;11.618;2023-12-22T00:47:16;141.03;;;57.73;;
39924;SDS011;25592;49.986;11.618;2023-12-22T00:50:02;142.93;;;58.50;;
39924;SDS011;25592;49.986;11.618;2023-12-22T00:52:49;141.17;;;56.80;;
39924;SDS011;25592;49.986;11.618;2023-12-22T00:55:34;143.40;;;59.00;;
39924;SDS011;25592;49.986;11.618;2023-12-22T00:58:20;141.93;;;57.57;;
39924;SDS011;25592;49.986;11.618;2023-12-22T01:01:06;141.40;;;56.83;;
39924;SDS011;25592;49.986;11.618;2023-12-22T01:03:51;141.73;;;56.93;;
39924;SDS011;25592;49.986;11.618;2023-12-22T01:06:37;142.20;;;58.40;;
39924;SDS011;25592;49.986;11.618;2023-12-22T01:09:23;140.63;;;56.90;;
39924;SDS011;25592;49.986;11.618;2023-12-22T01:12:09;141.40;;;56.73;;
39924;SDS011;25592;49.986;11.618;2023-12-22T01:14:56;141.90;;;56.80;;
39924;SDS011;25592;49.986;11.618;2023-12-22T01:17:41;144.80;;;64.30;;
39924;SDS011;25592;49.986;11.618;2023-12-22T01:20:27;141.17;;;58.33;;
39924;SDS011;25592;49.986;11.618;2023-12-22T01:23:12;140.93;;;56.87;;
39924;SDS011;25592;49.986;11.618;2023-12-22T01:25:57;140.50;;;56.80;;
39924;SDS011;25592;49.986;11.618;2023-12-22T01:28:43;140.57;;;57.43;;
39924;SDS011;25592;49.986;11.618;2023-12-22T01:31:28;141.83;;;57.30;;
39924;SDS011;25592;49.986;11.618;2023-12-22T01:34:14;141.43;;;57.53;;
39924;SDS011;25592;49.986;11.618;2023-12-22T01:36:59;142.23;;;58.37;;
39924;SDS011;25592;49.986;11.618;2023-12-22T01:39:45;141.30;;;57.50;;
39924;SDS011;25592;49.986;11.618;2023-12-22T01:42:30;142.20;;;57.20;;
39924;SDS011;25592;49.986;11.618;2023-12-22T01:45:16;142.07;;;57.50;;
39924;SDS011;25592;49.986;11.618;2023-12-22T01:48:02;143.67;;;59.87;;
39924;SDS011;25592;49.986;11.618;2023-12-22T01:50:49;143.93;;;59.73;;
39924;SDS011;25592;49.986;11.618;2023-12-22T01:53:36;146.07;;;60.27;;
39924;SDS011;25592;49.986;11.618;2023-12-22T01:56:23;143.13;;;57.47;;
39924;SDS011;25592;49.986;11.618;2023-12-22T01:59:09;144.07;;;57.27;;
39924;SDS011;25592;49.986;11.618;2023-12-22T02:01:56;145.43;;;58.73;;
39924;SDS011;25592;49.986;11.618;2023-12-22T02:04:41;144.73;;;58.50;;
39924;SDS011;25592;49.986;11.618;2023-12-22T02:07:27;144.13;;;57.77;;
39924;SDS011;25592;49.986;11.618;2023-12-22T02:10:13;142.60;;;57.20;;
39924;SDS011;25592;49.986;11.618;2023-12-22T02:12:58;143.80;;;57.70;;
39924;SDS011;25592;49.986;11.618;2023-12-22T02:15:44;142.63;;;56.27;;
39924;SDS011;25592;49.986;11.618;2023-12-22T02:18:33;145.33;;;57.97;;
39924;SDS011;25592;49.986;11.618;2023-12-22T02:21:20;144.70;;;57.60;;
39924;SDS011;25592;49.986;11.618;2023-12-22T02:24:06;144.63;;;56.83;;
39924;SDS011;25592;49.986;11.618;2023-12-22T02:26:51;147.33;;;59.20;;
39924;SDS011;25592;49.986;11.618;2023-12-22T02:29:52;148.03;;;60.07;;
39924;SDS011;25592;49.986;11.618;2023-12-22T02:32:47;145.43;;;56.17;;
39924;SDS011;25592;49.986;11.618;2023-12-22T02:35:38;152.07;;;55.97;;
39924;SDS011;25592;49.986;11.618;2023-12-22T02:38:26;146.30;;;58.23;;
39924;SDS011;25592;49.986;11.618;2023-12-22T02:41:12;143.90;;;57.30;;
39924;SDS011;25592;49.986;11.618;2023-12-22T02:43:58;143.43;;;56.37;;
39924;SDS011;25592;49.986;11.618;2023-12-22T02:46:46;146.30;;;57.30;;
39924;SDS011;25592;49.986;11.618;2023-12-22T02:49:31;146.57;;;61.27;;
39924;SDS011;25592;49.986;11.618;2023-12-22T02:52:16;144.17;;;57.40;;
39924;SDS011;25592;49.986;11.618;2023-12-22T02:55:02;142.60;;;57.13;;
39924;SDS011;25592;49.986;11.618;2023-12-22T02:57:48;141.43;;;57.57;;
39924;SDS011;25592;49.986;11.618;2023-12-22T03:00:34;139.87;;;54.40;;
39924;SDS011;25592;49.986;11.618;2023-12-22T03:03:20;141.30;;;56.00;;
39924;SDS011;25592;49.986;11.618;2023-12-22T03:06:05;142.03;;;57.70;;
39924;SDS011;25592;49.986;11.618;2023-12-22T03:08:51;143.10;;;56.90;;
39924;SDS011;25592;49.986;11.618;2023-12-22T03:11:36;143.00;;;57.60;;
39924;SDS011;25592;49.986;11.618;2023-12-22T03:14:22;143.53;;;57.77;;
39924;SDS011;25592;49.986;11.618;2023-12-22T03:17:07;143.20;;;57.87;;
39924;SDS011;25592;49.986;11.618;2023-12-22T03:19:53;141.77;;;55.80;;
39924;SDS011;25592;49.986;11.618;2023-12-22T03:22:38;147.23;;;59.20;;
39924;SDS011;25592;49.986;11.618;2023-12-22T03:25:24;145.37;;;57.80;;
39924;SDS011;25592;49.986;11.618;2023-12-22T03:28:10;144.90;;;56.77;;
39924;SDS011;25592;49.986;11.618;2023-12-22T03:30:56;143.50;;;58.07;;
39924;SDS011;25592;49.986;11.618;2023-12-22T03:33:41;144.33;;;56.80;;
39924;SDS011;25592;49.986;11.618;2023-12-22T03:36:27;141.60;;;55.77;;
39924;SDS011;25592;49.986;11.618;2023-12-22T03:39:12;141.97;;;55.93;;
39924;SDS011;25592;49.986;11.618;2023-12-22T03:41:58;144.17;;;59.57;;
39924;SDS011;25592;49.986;11.618;2023-12-22T03:44:43;142.40;;;57.13;;
39924;SDS011;25592;49.986;11.618;2023-12-22T03:47:29;142.70;;;57.33;;
39924;SDS011;25592;49.986;11.618;2023-12-22T03:50:14;143.67;;;57.50;;
39924;SDS011;25592;49.986;11.618;2023-12-22T03:53:00;144.93;;;58.37;;
39924;SDS011;25592;49.986;11.618;2023-12-22T03:55:45;144.90;;;58.40;;
39924;SDS011;25592;49.986;11.618;2023-12-22T03:58:31;144.37;;;57.10;;
39924;SDS011;25592;49.986;11.618;2023-12-22T04:01:16;144.63;;;58.60;;
39924;SDS011;25592;49.986;11.618;2023-12-22T04:04:02;142.50;;;56.83;;
39924;SDS011;25592;49.986;11.618;2023-12-22T04:06:47;142.47;;;56.83;;
39924;SDS011;25592;49.986;11.618;2023-12-22T04:09:32;144.07;;;57.57;;
39924;SDS011;25592;49.986;11.618;2023-12-22T04:12:18;143.83;;;58.10;;
39924;SDS011;25592;49.986;11.618;2023-12-22T04:15:04;144.03;;;58.50;;
39924;SDS011;25592;49.986;11.618;2023-12-22T04:17:50;143.97;;;58.07;;
39924;SDS011;25592;49.986;11.618;2023-12-22T04:20:35;145.23;;;59.07;;
39924;SDS011;25592;49.986;11.618;2023-12-22T04:23:21;143.77;;;57.37;;
39924;SDS011;25592;49.986;11.618;2023-12-22T04:26:06;143.67;;;57.00;;
39924;SDS011;25592;49.986;11.618;2023-12-22T04:28:52;144.97;;;57.57;;
39924;SDS011;25592;49.986;11.618;2023-12-22T04:31:37;145.00;;;57.70;;
39924;SDS011;25592;49.986;11.618;2023-12-22T04:34:23;148.97;;;58.60;;
39924;SDS011;25592;49.986;11.618;2023-12-22T04:37:09;143.43;;;57.17;;
39924;SDS011;25592;49.986;11.618;2023-12-22T04:39:54;146.50;;;59.10;;
39924;SDS011;25592;49.986;11.618;2023-12-22T04:42:39;144.40;;;58.73;;
39924;SDS011;25592;49.986;11.618;2023-12-22T04:45:25;145.27;;;56.73;;
39924;SDS011;25592;49.986;11.618;2023-12-22T04:48:10;146.40;;;57.53;;
39924;SDS011;25592;49.986;11.618;2023-12-22T04:50:56;143.83;;;56.77;;
39924;SDS011;25592;49.986;11.618;2023-12-22T04:53:41;145.00;;;57.87;;
39924;SDS011;25592;49.986;11.618;2023-12-22T04:56:27;143.50;;;56.47;;
39924;SDS011;25592;49.986;11.618;2023-12-22T04:59:12;145.80;;;57.87;;
39924;SDS011;25592;49.986;11.618;2023-12-22T05:01:58;146.83;;;60.77;;
39924;SDS011;25592;49.986;11.618;2023-12-22T05:04:44;148.43;;;59.13;;
39924;SDS011;25592;49.986;11.618;2023-12-22T05:07:29;144.63;;;56.23;;
39924;SDS011;25592;49.986;11.618;2023-12-22T05:10:15;149.13;;;58.30;;
39924;SDS011;25592;49.986;11.618;2023-12-22T05:13:01;143.23;;;56.07;;
39924;SDS011;25592;49.986;11.618;2023-12-22T05:15:46;148.67;;;60.30;;
39924;SDS011;25592;49.986;11.618;2023-12-22T05:18:32;144.83;;;56.33;;
39924;SDS011;25592;49.986;11.618;2023-12-22T05:21:17;143.00;;;57.23;;
39924;SDS011;25592;49.986;11.618;2023-12-22T05:24:03;144.60;;;57.00;;
39924;SDS011;25592;49.986;11.618;2023-12-22T05:26:48;145.70;;;59.30;;
39924;SDS011;25592;49.986;11.618;2023-12-22T05:29:33;151.60;;;56.90;;
39924;SDS011;25592;49.986;11.618;2023-12-22T05:32:19;152.53;;;57.03;;
39924;SDS011;25592;49.986;11.618;2023-12-22T05:35:05;154.33;;;62.47;;
39924;SDS011;25592;49.986;11.618;2023-12-22T05:37:50;144.93;;;56.60;;
39924;SDS011;25592;49.986;11.618;2023-12-22T05:40:36;146.13;;;61.03;;
39924;SDS011;25592;49.986;11.618;2023-12-22T05:43:22;144.03;;;57.40;;
39924;SDS011;25592;49.986;11.618;2023-12-22T05:46:07;143.83;;;58.60;;
39924;SDS011;25592;49.986;11.618;2023-12-22T05:48:54;143.87;;;56.33;;
39924;SDS011;25592;49.986;11.618;2023-12-22T05:51:44;145.10;;;58.77;;
39924;SDS011;25592;49.986;11.618;2023-12-22T05:54:29;145.60;;;55.10;;
39924;SDS011;25592;49.986;11.618;2023-12-22T05:57:15;145.13;;;58.63;;
39924;SDS011;25592;49.986;11.618;2023-12-22T06:00:02;143.03;;;58.17;;
39924;SDS011;25592;49.986;11.618;2023-12-22T06:02:51;145.63;;;57.83;;
39924;SDS011;25592;49.986;11.618;2023-12-22T06:05:37;145.80;;;58.93;;
39924;SDS011;25592;49.986;11.618;2023-12-22T06:08:23;143.37;;;55.97;;
39924;SDS011;25592;49.986;11.618;2023-12-22T06:11:09;147.57;;;57.10;;
39924;SDS011;25592;49.986;11.618;2023-12-22T06:13:54;146.83;;;58.60;;
39924;SDS011;25592;49.986;11.618;2023-12-22T06:16:40;143.53;;;58.17;;
39924;SDS011;25592;49.986;11.618;2023-12-22T06:19:25;142.90;;;57.23;;
39924;SDS011;25592;49.986;11.618;2023-12-22T06:22:15;142.70;;;57.40;;
39924;SDS011;25592;49.986;11.618;2023-12-22T06:25:01;140.53;;;59.30;;
39924;SDS011;25592;49.986;11.618;2023-12-22T06:27:52;143.70;;;57.97;;
39924;SDS011;25592;49.986;11.618;2023-12-22T06:30:37;142.20;;;58.87;;
39924;SDS011;25592;49.986;11.618;2023-12-22T06:33:22;142.97;;;58.10;;
39924;SDS011;25592;49.986;11.618;2023-12-22T06:36:08;143.80;;;58.53;;
39924;SDS011;25592;49.986;11.618;2023-12-22T06:39:09;143.10;;;57.10;;
39924;SDS011;25592;49.986;11.618;2023-12-22T06:41:54;143.30;;;58.30;;
39924;SDS011;25592;49.986;11.618;2023-12-22T06:44:43;143.50;;;57.50;;
39924;SDS011;25592;49.986;11.618;2023-12-22T06:47:29;142.23;;;54.83;;
39924;SDS011;25592;49.986;11.618;2023-12-22T06:50:14;144.23;;;56.97;;
39924;SDS011;25592;49.986;11.618;2023-12-22T06:52:59;144.57;;;58.13;;
39924;SDS011;25592;49.986;11.618;2023-12-22T06:55:57;142.40;;;57.63;;
39924;SDS011;25592;49.986;11.618;2023-12-22T06:58:43;143.97;;;57.93;;
39924;SDS011;25592;49.986;11.618;2023-12-22T07:01:31;145.67;;;57.07;;
39924;SDS011;25592;49.986;11.618;2023-12-22T07:04:19;143.30;;;56.53;;
39924;SDS011;25592;49.986;11.618;2023-12-22T07:07:04;146.83;;;58.00;;
39924;SDS011;25592;49.986;11.618;2023-12-22T07:09:50;143.77;;;58.00;;
39924;SDS011;25592;49.986;11.618;2023-12-22T07:12:35;141.83;;;55.77;;
39924;SDS011;25592;49.986;11.618;2023-12-22T07:15:21;145.03;;;58.17;;
39924;SDS011;25592;49.986;11.618;2023-12-22T07:18:06;144.63;;;57.47;;
39924;SDS011;25592;49.986;11.618;2023-12-22T07:20:52;145.13;;;58.73;;
39924;SDS011;25592;49.986;11.618;2023-12-22T07:23:37;142.07;;;58.67;;
39924;SDS011;25592;49.986;11.618;2023-12-22T07:26:23;140.67;;;56.17;;
39924;SDS011;25592;49.986;11.618;2023-12-22T07:29:09;141.60;;;57.13;;
39924;SDS011;25592;49.986;11.618;2023-12-22T07:31:54;142.40;;;58.03;;
39924;SDS011;25592;49.986;11.618;2023-12-22T07:34:40;141.63;;;57.40;;
39924;SDS011;25592;49.986;11.618;2023-12-22T07:37:25;143.20;;;57.63;;
39924;SDS011;25592;49.986;11.618;2023-12-22T07:40:11;141.17;;;56.60;;
39924;SDS011;25592;49.986;11.618;2023-12-22T07:42:57;142.67;;;57.13;;
39924;SDS011;25592;49.986;11.618;2023-12-22T07:45:43;143.27;;;57.93;;
39924;SDS011;25592;49.986;11.618;2023-12-22T07:48:28;144.33;;;57.20;;
39924;SDS011;25592;49.986;11.618;2023-12-22T07:51:14;143.80;;;56.10;;
39924;SDS011;25592;49.986;11.618;2023-12-22T07:53:59;144.57;;;59.03;;
39924;SDS011;25592;49.986;11.618;2023-12-22T07:56:45;144.13;;;58.20;;
39924;SDS011;25592;49.986;11.618;2023-12-22T07:59:30;146.87;;;56.43;;
39924;SDS011;25592;49.986;11.618;2023-12-22T08:02:16;142.13;;;55.97;;
39924;SDS011;25592;49.986;11.618;2023-12-22T08:05:02;143.43;;;56.93;;
39924;SDS011;25592;49.986;11.618;2023-12-22T08:07:48;147.43;;;64.27;;
39924;SDS011;25592;49.986;11.618;2023-12-22T08:10:34;143.10;;;57.10;;
39924;SDS011;25592;49.986;11.618;2023-12-22T08:13:19;145.37;;;57.70;;
39924;SDS011;25592;49.986;11.618;2023-12-22T08:16:05;142.60;;;55.93;;
39924;SDS011;25592;49.986;11.618;2023-12-22T08:18:51;143.67;;;57.17;;
39924;SDS011;25592;49.986;11.618;2023-12-22T08:21:37;143.80;;;57.27;;
39924;SDS011;25592;49.986;11.618;2023-12-22T08:24:30;146.98;;;57.92;;
39924;SDS011;25592;49.986;11.618;2023-12-22T08:27:16;143.73;;;58.17;;
39924;SDS011;25592;49.986;11.618;2023-12-22T08:30:02;143.73;;;56.30;;
39924;SDS011;25592;49.986;11.618;2023-12-22T08:32:48;145.80;;;58.37;;
39924;SDS011;25592;49.986;11.618;2023-12-22T08:35:33;143.20;;;56.10;;
39924;SDS011;25592;49.986;11.618;2023-12-22T08:38:20;145.93;;;57.73;;
39924;SDS011;25592;49.986;11.618;2023-12-22T08:41:06;145.00;;;56.23;;
39924;SDS011;25592;49.986;11.618;2023-12-22T08:43:54;147.53;;;59.37;;
39924;SDS011;25592;49.986;11.618;2023-12-22T08:46:39;146.57;;;57.33;;
39924;SDS011;25592;49.986;11.618;2023-12-22T08:49:29;145.70;;;56.60;;
39924;SDS011;25592;49.986;11.618;2023-12-22T08:52:14;147.00;;;57.53;;
39924;SDS011;25592;49.986;11.618;2023-12-22T08:54:59;147.43;;;56.83;;
39924;SDS011;25592;49.986;11.618;2023-12-22T08:57:45;148.33;;;62.90;;
39924;SDS011;25592;49.986;11.618;2023-12-22T09:00:40;145.07;;;57.63;;
39924;SDS011;25592;49.986;11.618;2023-12-22T09:03:26;145.27;;;57.57;;
39924;SDS011;25592;49.986;11.618;2023-12-22T09:06:19;147.03;;;57.07;;
39924;SDS011;25592;49.986;11.618;2023-12-22T09:09:06;146.10;;;56.80;;
39924;SDS011;25592;49.986;11.618;2023-12-22T09:11:53;145.73;;;58.43;;
39924;SDS011;25592;49.986;11.618;2023-12-22T09:14:39;146.47;;;57.07;;
39924;SDS011;25592;49.986;11.618;2023-12-22T09:17:25;147.37;;;57.00;;
39924;SDS011;25592;49.986;11.618;2023-12-22T09:20:12;147.33;;;59.03;;
39924;SDS011;25592;49.986;11.618;2023-12-22T09:22:58;147.47;;;57.70;;
39924;SDS011;25592;49.986;11.618;2023-12-22T09:25:43;148.87;;;57.20;;
39924;SDS011;25592;49.986;11.618;2023-12-22T09:28:29;146.77;;;57.53;;
39924;SDS011;25592;49.986;11.618;2023-12-22T09:31:14;146.57;;;56.43;;
39924;SDS011;25592;49.986;11.618;2023-12-22T09:34:00;148.63;;;57.83;;
39924;SDS011;25592;49.986;11.618;2023-12-22T09:36:45;146.20;;;55.93;;
39924;SDS011;25592;49.986;11.618;2023-12-22T09:39:31;130.50;;;57.10;;
39924;SDS011;25592;49.986;11.618;2023-12-22T09:42:16;128.37;;;55.53;;
39924;SDS011;25592;49.986;11.618;2023-12-22T09:45:02;129.33;;;57.60;;
39924;SDS011;25592;49.986;11.618;2023-12-22T09:47:49;133.77;;;63.23;;
39924;SDS011;25592;49.986;11.618;2023-12-22T09:50:36;130.03;;;56.77;;
39924;SDS011;25592;49.986;11.618;2023-12-22T09:53:24;141.10;;;57.50;;
39924;SDS011;25592;49.986;11.618;2023-12-22T09:56:12;136.53;;;58.03;;
39924;SDS011;25592;49.986;11.618;2023-12-22T09:59:00;134.73;;;58.37;;
39924;SDS011;25592;49.986;11.618;2023-12-22T10:01:46;135.17;;;57.70;;
39924;SDS011;25592;49.986;11.618;2023-12-22T10:04:35;139.13;;;57.60;;
39924;SDS011;25592;49.986;11.618;2023-12-22T10:07:20;134.30;;;57.67;;
39924;SDS011;25592;49.986;11.618;2023-12-22T10:10:07;135.33;;;56.13;;
39924;SDS011;25592;49.986;11.618;2023-12-22T10:12:54;138.60;;;57.33;;
39924;SDS011;25592;49.986;11.618;2023-12-22T10:15:40;140.27;;;59.90;;
39924;SDS011;25592;49.986;11.618;2023-12-22T10:18:28;141.47;;;59.10;;
39924;SDS011;25592;49.986;11.618;2023-12-22T10:21:14;141.43;;;59.67;;
39924;SDS011;25592;49.986;11.618;2023-12-22T10:23:59;140.37;;;59.10;;
39924;SDS011;25592;49.986;11.618;2023-12-22T10:26:44;140.23;;;58.07;;
39924;SDS011;25592;49.986;11.618;2023-12-22T10:29:31;141.13;;;58.47;;
39924;SDS011;25592;49.986;11.618;2023-12-22T10:32:18;140.43;;;58.00;;
39924;SDS011;25592;49.986;11.618;2023-12-22T10:35:04;139.20;;;55.77;;
39924;SDS011;25592;49.986;11.618;2023-12-22T10:37:49;146.00;;;65.30;;
39924;SDS011;25592;49.986;11.618;2023-12-22T10:40:38;140.83;;;58.70;;
39924;SDS011;25592;49.986;11.618;2023-12-22T10:43:24;135.90;;;55.80;;
39924;SDS011;25592;49.986;11.618;2023-12-22T10:46:10;137.13;;;56.73;;
39924;SDS011;25592;49.986;11.618;2023-12-22T10:48:57;141.93;;;61.63;;
39924;SDS011;25592;49.986;11.618;2023-12-22T10:51:43;140.17;;;58.57;;
39924;SDS011;25592;49.986;11.618;2023-12-22T10:54:29;139.90;;;57.23;;
39924;SDS011;25592;49.986;11.618;2023-12-22T10:57:18;140.40;;;59.03;;
39924;SDS011;25592;49.986;11.618;2023-12-22T11:00:06;139.40;;;58.03;;
39924;SDS011;25592;49.986;11.618;2023-12-22T11:02:54;140.43;;;59.40;;
39924;SDS011;25592;49.986;11.618;2023-12-22T11:05:46;140.00;;;58.13;;
39924;SDS011;25592;49.986;11.618;2023-12-22T11:08:33;139.67;;;57.23;;
39924;SDS011;25592;49.986;11.618;2023-12-22T11:11:26;140.27;;;58.53;;
39924;SDS011;25592;49.986;11.618;2023-12-22T11:14:15;140.10;;;57.73;;
39924;SDS011;25592;49.986;11.618;2023-12-22T11:17:02;141.80;;;61.23;;
39924;SDS011;25592;49.986;11.618;2023-12-22T11:19:49;140.20;;;59.73;;
39924;SDS011;25592;49.986;11.618;2023-12-22T11:22:36;139.97;;;57.80;;
39924;SDS011;25592;49.986;11.618;2023-12-22T11:25:23;139.23;;;57.77;;
39924;SDS011;25592;49.986;11.618;2023-12-22T11:28:09;137.10;;;56.60;;
39924;SDS011;25592;49.986;11.618;2023-12-22T11:30:58;139.20;;;58.67;;
39924;SDS011;25592;49.986;11.618;2023-12-22T11:33:49;140.20;;;58.17;;
39924;SDS011;25592;49.986;11.618;2023-12-22T11:36:48;141.67;;;58.77;;
39924;SDS011;25592;49.986;11.618;2023-12-22T11:39:36;136.70;;;56.13;;
39924;SDS011;25592;49.986;11.618;2023-12-22T11:42:25;138.17;;;57.47;;
39924;SDS011;25592;49.986;11.618;2023-12-22T11:45:14;133.15;;;57.25;;
39924;SDS011;25592;49.986;11.618;2023-12-22T11:48:05;138.27;;;58.30;;
39924;SDS011;25592;49.986;11.618;2023-12-22T11:50:54;137.90;;;57.10;;
39924;SDS011;25592;49.986;11.618;2023-12-22T11:53:39;136.93;;;56.70;;
39924;SDS011;25592;49.986;11.618;2023-12-22T11:56:25;136.67;;;57.53;;
39924;SDS011;25592;49.986;11.618;2023-12-22T11:59:10;135.10;;;55.77;;
39924;SDS011;25592;49.986;11.618;2023-12-22T12:01:56;139.23;;;60.43;;
39924;SDS011;25592;49.986;11.618;2023-12-22T12:04:41;139.40;;;58.17;;
39924;SDS011;25592;49.986;11.618;2023-12-22T12:07:37;138.03;;;57.50;;
39924;SDS011;25592;49.986;11.618;2023-12-22T12:13:24;134.98;;;56.00;;
39924;SDS011;25592;49.986;11.618;2023-12-22T12:16:14;136.80;;;56.37;;
39924;SDS011;25592;49.986;11.618;2023-12-22T12:19:06;142.93;;;58.83;;
39924;SDS011;25592;49.986;11.618;2023-12-22T12:21:56;140.23;;;58.80;;
39924;SDS011;25592;49.986;11.618;2023-12-22T12:24:42;139.80;;;58.10;;
39924;SDS011;25592;49.986;11.618;2023-12-22T12:27:30;141.03;;;56.40;;
39924;SDS011;25592;49.986;11.618;2023-12-22T12:30:19;139.43;;;57.83;;
39924;SDS011;25592;49.986;11.618;2023-12-22T12:33:06;141.50;;;57.20;;
39924;SDS011;25592;49.986;11.618;2023-12-22T12:35:54;140.60;;;57.70;;
39924;SDS011;25592;49.986;11.618;2023-12-22T12:41:34;141.27;;;58.50;;
39924;SDS011;25592;49.986;11.618;2023-12-22T12:44:22;139.17;;;55.93;;
39924;SDS011;25592;49.986;11.618;2023-12-22T12:47:19;141.97;;;58.23;;
39924;SDS011;25592;49.986;11.618;2023-12-22T12:50:05;141.00;;;57.07;;
39924;SDS011;25592;49.986;11.618;2023-12-22T12:52:53;144.47;;;66.70;;
39924;SDS011;25592;49.986;11.618;2023-12-22T12:55:41;141.13;;;58.20;;
39924;SDS011;25592;49.986;11.618;2023-12-22T12:58:30;140.00;;;57.10;;
39924;SDS011;25592;49.986;11.618;2023-12-22T13:01:16;136.70;;;56.00;;
39924;SDS011;25592;49.986;11.618;2023-12-22T13:04:14;140.07;;;57.70;;
39924;SDS011;25592;49.986;11.618;2023-12-22T13:07:00;140.37;;;55.90;;
39924;SDS011;25592;49.986;11.618;2023-12-22T13:09:46;138.70;;;58.03;;
39924;SDS011;25592;49.986;11.618;2023-12-22T13:12:32;137.53;;;56.17;;
39924;SDS011;25592;49.986;11.618;2023-12-22T13:15:18;140.70;;;57.43;;
39924;SDS011;25592;49.986;11.618;2023-12-22T13:18:04;141.60;;;59.30;;
39924;SDS011;25592;49.986;11.618;2023-12-22T13:20:49;141.70;;;58.13;;
39924;SDS011;25592;49.986;11.618;2023-12-22T13:23:35;142.03;;;58.80;;
39924;SDS011;25592;49.986;11.618;2023-12-22T13:26:21;140.17;;;56.63;;
39924;SDS011;25592;49.986;11.618;2023-12-22T13:29:06;142.50;;;59.33;;
39924;SDS011;25592;49.986;11.618;2023-12-22T13:31:53;143.07;;;58.20;;
39924;SDS011;25592;49.986;11.618;2023-12-22T13:34:40;140.63;;;58.10;;
39924;SDS011;25592;49.986;11.618;2023-12-22T13:37:32;140.60;;;56.38;;
39924;SDS011;25592;49.986;11.618;2023-12-22T13:40:17;141.67;;;57.97;;
39924;SDS011;25592;49.986;11.618;2023-12-22T13:43:03;140.77;;;57.53;;
39924;SDS011;25592;49.986;11.618;2023-12-22T13:45:49;140.77;;;57.73;;
39924;SDS011;25592;49.986;11.618;2023-12-22T13:48:36;140.97;;;58.13;;
39924;SDS011;25592;49.986;11.618;2023-12-22T13:51:21;139.90;;;56.73;;
39924;SDS011;25592;49.986;11.618;2023-12-22T13:54:07;140.10;;;58.30;;
39924;SDS011;25592;49.986;11.618;2023-12-22T13:56:53;141.00;;;56.77;;
39924;SDS011;25592;49.986;11.618;2023-12-22T13:59:38;141.67;;;58.27;;
39924;SDS011;25592;49.986;11.618;2023-12-22T14:02:24;141.90;;;56.90;;
39924;SDS011;25592;49.986;11.618;2023-12-22T14:05:09;142.43;;;57.73;;
39924;SDS011;25592;49.986;11.618;2023-12-22T14:07:55;141.80;;;56.80;;
39924;SDS011;25592;49.986;11.618;2023-12-22T14:10:44;139.37;;;55.33;;
39924;SDS011;25592;49.986;11.618;2023-12-22T14:13:32;141.67;;;56.37;;
39924;SDS011;25592;49.986;11.618;2023-12-22T14:16:18;140.27;;;56.93;;
39924;SDS011;25592;49.986;11.618;2023-12-22T14:19:03;142.10;;;58.30;;
39924;SDS011;25592;49.986;11.618;2023-12-22T14:21:49;141.37;;;58.10;;
39924;SDS011;25592;49.986;11.618;2023-12-22T14:24:34;140.80;;;55.73;;
39924;SDS011;25592;49.986;11.618;2023-12-22T14:27:22;141.13;;;56.43;;
39924;SDS011;25592;49.986;11.618;2023-12-22T14:30:08;142.40;;;59.37;;
39924;SDS011;25592;49.986;11.618;2023-12-22T14:32:54;140.40;;;57.10;;
39924;SDS011;25592;49.986;11.618;2023-12-22T14:35:40;140.20;;;56.43;;
39924;SDS011;25592;49.986;11.618;2023-12-22T14:38:25;140.27;;;56.43;;
39924;SDS011;25592;49.986;11.618;2023-12-22T14:41:10;139.63;;;56.63;;
39924;SDS011;25592;49.986;11.618;2023-12-22T14:43:56;140.63;;;58.40;;
39924;SDS011;25592;49.986;11.618;2023-12-22T14:46:43;138.90;;;57.43;;
39924;SDS011;25592;49.986;11.618;2023-12-22T14:49:30;141.83;;;58.60;;
39924;SDS011;25592;49.986;11.618;2023-12-22T14:52:15;141.07;;;59.07;;
39924;SDS011;25592;49.986;11.618;2023-12-22T14:55:01;141.97;;;58.57;;
39924;SDS011;25592;49.986;11.618;2023-12-22T14:57:47;142.63;;;63.60;;
39924;SDS011;25592;49.986;11.618;2023-12-22T15:00:33;137.37;;;54.80;;
39924;SDS011;25592;49.986;11.618;2023-12-22T15:03:19;141.33;;;57.87;;
39924;SDS011;25592;49.986;11.618;2023-12-22T15:06:04;141.23;;;57.73;;
39924;SDS011;25592;49.986;11.618;2023-12-22T15:08:51;140.23;;;56.63;;
39924;SDS011;25592;49.986;11.618;2023-12-22T15:11:40;140.13;;;57.23;;
39924;SDS011;25592;49.986;11.618;2023-12-22T15:14:29;140.45;;;55.80;;
39924;SDS011;25592;49.986;11.618;2023-12-22T15:17:15;141.50;;;57.70;;
39924;SDS011;25592;49.986;11.618;2023-12-22T15:20:02;139.87;;;56.47;;
39924;SDS011;25592;49.986;11.618;2023-12-22T15:22:50;139.80;;;55.73;;
39924;SDS011;25592;49.986;11.618;2023-12-22T15:25:36;142.77;;;60.33;;
39924;SDS011;25592;49.986;11.618;2023-12-22T15:28:22;140.80;;;56.53;;
39924;SDS011;25592;49.986;11.618;2023-12-22T15:31:07;140.13;;;57.07;;
39924;SDS011;25592;49.986;11.618;2023-12-22T15:33:53;141.40;;;56.30;;
39924;SDS011;25592;49.986;11.618;2023-12-22T15:36:38;141.40;;;55.90;;
39924;SDS011;25592;49.986;11.618;2023-12-22T15:39:23;142.97;;;60.40;;
39924;SDS011;25592;49.986;11.618;2023-12-22T15:42:09;140.17;;;56.50;;
39924;SDS011;25592;49.986;11.618;2023-12-22T15:44:54;140.97;;;58.40;;
39924;SDS011;25592;49.986;11.618;2023-12-22T15:47:40;143.47;;;62.10;;
39924;SDS011;25592;49.986;11.618;2023-12-22T15:50:27;142.30;;;57.90;;